createdAt,value
2022-11-30T00:03:36.637Z,96.66
2022-11-30T00:08:44.242Z,96.62
2022-11-30T00:13:51.860Z,96.66
2022-11-30T00:18:59.989Z,96.91
2022-11-30T00:24:08.373Z,96.78
2022-11-30T00:29:15.689Z,96.58
2022-11-30T00:34:22.641Z,96.14
2022-11-30T00:39:35.333Z,96.30
2022-11-30T00:44:42.968Z,96.70
2022-11-30T00:49:50.674Z,96.56
2022-11-30T00:54:59.406Z,96.50
2022-11-30T01:00:11.759Z,96.29
2022-11-30T01:05:19.479Z,96.33
2022-11-30T01:10:28.212Z,96.29
2022-11-30T01:15:39.863Z,96.11
2022-11-30T01:20:47.383Z,96.33
2022-11-30T01:25:57.980Z,96.48
2022-11-30T01:31:07.371Z,96.23
2022-11-30T01:36:16.267Z,96.38
2022-11-30T01:41:26.076Z,96.50
2022-11-30T01:46:38.157Z,96.24
2022-11-30T01:51:50.062Z,96.08
2022-11-30T01:57:01.318Z,96.01
2022-11-30T02:02:09.076Z,95.91
2022-11-30T02:07:16.806Z,95.67
2022-11-30T02:12:36.011Z,95.73
2022-11-30T02:17:53.916Z,95.70
2022-11-30T02:23:22.401Z,95.77
2022-11-30T02:28:57.131Z,95.82
2022-11-30T02:34:06.972Z,95.83
2022-11-30T02:39:14.419Z,95.67
2022-11-30T02:44:24.324Z,95.19
2022-11-30T02:49:38.538Z,95.62
2022-11-30T02:54:46.439Z,95.69
2022-11-30T02:59:54.336Z,95.71
2022-11-30T03:05:01.384Z,95.84
2022-11-30T03:10:10.996Z,95.89
2022-11-30T03:15:19.063Z,95.66
2022-11-30T03:20:26.821Z,95.58
2022-11-30T03:25:33.872Z,95.48
2022-11-30T03:30:41.028Z,95.18
2022-11-30T03:35:48.235Z,95.39
2022-11-30T03:41:02.784Z,95.31
2022-11-30T03:51:09.063Z,95.13
2022-11-30T03:56:17.143Z,95.14
2022-11-30T04:01:25.152Z,95.03
2022-11-30T04:06:32.518Z,94.86
2022-11-30T04:11:39.829Z,94.92
2022-11-30T04:16:45.182Z,95.31
2022-11-30T04:21:52.689Z,95.34
2022-11-30T04:26:59.995Z,95.41
2022-11-30T04:32:07.767Z,95.28
2022-11-30T04:37:15.110Z,95.15
2022-11-30T04:42:22.551Z,95.13
2022-11-30T04:47:29.785Z,94.95
2022-11-30T04:52:38.111Z,94.81
2022-11-30T04:57:45.348Z,94.74
2022-11-30T05:02:53.583Z,94.69
2022-11-30T05:08:01.900Z,94.66
2022-11-30T05:13:09.125Z,94.48
2022-11-30T05:18:17.221Z,94.36
2022-11-30T05:23:24.847Z,94.38
2022-11-30T05:28:32.747Z,94.23
2022-11-30T05:33:40.346Z,94.19
2022-11-30T05:38:47.663Z,94.11
2022-11-30T05:43:56.497Z,94.08
2022-11-30T05:49:04.089Z,94.26
2022-11-30T05:54:11.593Z,94.03
2022-11-30T05:59:16.943Z,94.10
2022-11-30T06:04:24.382Z,93.95
2022-11-30T06:09:32.099Z,94.01
2022-11-30T06:14:39.184Z,94.19
2022-11-30T06:19:46.477Z,94.23
2022-11-30T06:24:53.986Z,94.30
2022-11-30T06:30:02.237Z,93.89
2022-11-30T06:35:11.186Z,94.07
2022-11-30T06:40:18.789Z,94.45
2022-11-30T06:45:26.256Z,94.30
2022-11-30T06:50:34.996Z,94.42
2022-11-30T06:55:43.218Z,94.46
2022-11-30T07:00:50.528Z,94.20
2022-11-30T07:05:58.852Z,94.32
2022-11-30T07:11:07.082Z,94.00
2022-11-30T07:16:15.877Z,93.83
2022-11-30T07:21:22.942Z,93.73
2022-11-30T07:26:29.316Z,93.51
2022-11-30T07:31:36.865Z,93.48
2022-11-30T07:36:44.091Z,93.64
2022-11-30T07:41:49.788Z,93.40
2022-11-30T07:46:57.024Z,93.64
2022-11-30T07:52:04.848Z,93.92
2022-11-30T07:57:12.993Z,93.93
2022-11-30T08:02:21.139Z,93.95
2022-11-30T08:07:28.438Z,93.97
2022-11-30T08:12:35.823Z,94.12
2022-11-30T08:17:41.305Z,93.76
2022-11-30T08:22:49.425Z,93.77
2022-11-30T08:27:56.916Z,93.73
2022-11-30T08:33:04.310Z,93.81
2022-11-30T08:38:12.332Z,93.89
2022-11-30T08:43:19.946Z,93.93
2022-11-30T08:48:27.556Z,93.79
2022-11-30T08:53:35.239Z,93.50
2022-11-30T08:58:43.589Z,93.47
2022-11-30T09:03:53.546Z,93.49
2022-11-30T09:09:02.404Z,93.46
2022-11-30T09:14:12.353Z,93.52
2022-11-30T09:19:20.056Z,93.25
2022-11-30T09:24:28.294Z,93.04
2022-11-30T09:29:35.828Z,93.17
2022-11-30T09:34:45.695Z,93.16
2022-11-30T09:39:54.196Z,92.90
2022-11-30T09:45:12.885Z,93.08
2022-11-30T09:50:25.966Z,92.67
2022-11-30T09:55:36.176Z,92.66
2022-11-30T10:00:43.370Z,92.23
2022-11-30T10:05:52.011Z,92.40
2022-11-30T10:11:18.995Z,92.47
2022-11-30T10:16:32.781Z,92.74
2022-11-30T10:21:58.311Z,92.32
2022-11-30T10:27:17.864Z,92.32
2022-11-30T10:32:39.117Z,92.15
2022-11-30T10:37:48.207Z,91.78
2022-11-30T10:43:07.799Z,91.83
2022-11-30T10:48:21.352Z,91.82
2022-11-30T10:53:28.859Z,91.61
2022-11-30T10:58:39.504Z,91.60
2022-11-30T11:03:47.378Z,91.64
2022-11-30T11:08:54.496Z,91.67
2022-11-30T11:14:11.230Z,91.34
2022-11-30T11:19:26.588Z,90.69
2022-11-30T11:24:34.473Z,90.50
2022-11-30T11:29:42.168Z,90.25
2022-11-30T11:34:51.494Z,90.22
2022-11-30T11:40:05.694Z,90.41
2022-11-30T11:45:22.267Z,90.36
2022-11-30T11:51:05.063Z,90.37
2022-11-30T11:56:07.505Z,90.35
2022-11-30T12:01:40.490Z,89.84
2022-11-30T12:06:52.273Z,89.85
2022-11-30T12:11:59.565Z,89.50
2022-11-30T12:17:11.279Z,89.73
2022-11-30T12:22:38.640Z,89.71
2022-11-30T12:27:54.490Z,89.53
2022-11-30T12:33:21.310Z,89.62
2022-11-30T12:38:39.980Z,89.00
2022-11-30T12:43:55.981Z,88.82
2022-11-30T12:49:18.693Z,88.74
2022-11-30T12:54:34.756Z,88.76
2022-11-30T12:59:51.856Z,89.15
2022-11-30T13:05:03.991Z,89.44
2022-11-30T13:10:26.884Z,89.33
2022-11-30T13:15:36.771Z,89.07
2022-11-30T13:20:51.174Z,88.29
2022-11-30T13:26:08.589Z,88.25
2022-11-30T13:31:24.126Z,88.62
2022-11-30T13:36:38.423Z,88.56
2022-11-30T13:41:48.702Z,88.48
2022-11-30T13:46:56.439Z,88.56
2022-11-30T13:58:07.091Z,89.12
2022-11-30T14:03:28.713Z,89.35
2022-11-30T14:08:39.444Z,89.36
2022-11-30T14:13:47.091Z,89.08
2022-11-30T14:18:54.414Z,89.12
2022-11-30T14:24:06.934Z,89.06
2022-11-30T14:29:22.223Z,89.02
2022-11-30T14:34:34.141Z,89.04
2022-11-30T14:39:46.334Z,88.65
2022-11-30T14:44:54.425Z,88.93
2022-11-30T14:50:06.104Z,89.25
2022-11-30T14:55:26.333Z,89.19
2022-11-30T15:00:40.375Z,89.23
2022-11-30T15:05:47.963Z,88.72
2022-11-30T15:10:56.903Z,88.72
2022-11-30T15:17:11.270Z,88.98
2022-11-30T15:22:25.151Z,88.87
2022-11-30T15:27:32.964Z,88.74
2022-11-30T15:32:40.388Z,88.78
2022-11-30T15:37:48.018Z,88.79
2022-11-30T15:42:55.880Z,88.62
2022-11-30T15:48:05.544Z,88.58
2022-11-30T15:53:34.148Z,88.90
2022-11-30T15:58:46.989Z,88.76
2022-11-30T16:04:16.634Z,88.39
2022-11-30T16:09:32.535Z,87.91
2022-11-30T16:14:39.550Z,87.93
2022-11-30T16:19:47.012Z,88.01
2022-11-30T16:24:54.337Z,88.03
2022-11-30T16:30:01.601Z,87.99
2022-11-30T16:35:19.878Z,87.96
2022-11-30T16:40:27.087Z,87.91
2022-11-30T16:45:35.685Z,88.22
2022-11-30T16:50:43.467Z,88.43
2022-11-30T16:55:50.795Z,88.15
2022-11-30T17:01:00.551Z,88.04
2022-11-30T17:06:10.386Z,87.88
2022-11-30T17:11:22.756Z,88.21
2022-11-30T17:16:30.405Z,88.36
2022-11-30T17:21:39.146Z,88.35
2022-11-30T17:26:46.188Z,88.47
2022-11-30T17:31:52.282Z,88.35
2022-11-30T17:36:59.472Z,88.41
2022-11-30T17:42:07.193Z,88.34
2022-11-30T17:47:14.691Z,88.32
2022-11-30T17:52:22.001Z,88.21
2022-11-30T17:57:29.038Z,88.31
2022-11-30T18:02:36.174Z,88.36
2022-11-30T18:07:43.584Z,88.24
2022-11-30T18:12:51.332Z,88.34
2022-11-30T18:18:01.417Z,88.20
2022-11-30T18:23:09.018Z,88.07
2022-11-30T18:28:16.365Z,87.81
2022-11-30T18:33:24.385Z,87.80
2022-11-30T18:38:37.217Z,87.86
2022-11-30T18:43:44.933Z,87.64
2022-11-30T18:48:51.426Z,87.92
2022-11-30T18:54:00.792Z,88.19
2022-11-30T18:59:09.561Z,87.74
2022-11-30T19:04:16.842Z,88.27
2022-11-30T19:09:24.092Z,88.52
2022-11-30T19:14:31.431Z,88.41
2022-11-30T19:19:38.719Z,88.45
2022-11-30T19:24:45.972Z,88.66
2022-11-30T19:29:53.664Z,88.56
2022-11-30T19:35:00.778Z,88.41
2022-11-30T19:40:09.520Z,88.59
2022-11-30T19:50:49.164Z,88.32
2022-11-30T19:55:57.261Z,88.32
2022-11-30T20:01:05.531Z,88.44
2022-11-30T20:06:13.168Z,88.62
2022-11-30T20:11:21.043Z,88.48
2022-11-30T20:16:28.888Z,88.65
2022-11-30T20:21:37.712Z,88.47
2022-11-30T20:26:47.810Z,88.10
2022-11-30T20:31:55.210Z,88.64
2022-11-30T20:37:02.533Z,88.60
2022-11-30T20:42:10.016Z,88.74
2022-11-30T20:47:17.257Z,88.58
2022-11-30T20:52:23.394Z,88.77
2022-11-30T20:57:36.265Z,88.85
2022-11-30T21:02:43.511Z,88.95
2022-11-30T21:07:51.292Z,88.91
2022-11-30T21:12:58.274Z,89.13
2022-11-30T21:18:05.770Z,88.97
2022-11-30T21:23:12.794Z,88.35
2022-11-30T21:28:21.103Z,88.42
2022-11-30T21:33:28.668Z,88.69
2022-11-30T21:38:36.428Z,89.01
2022-11-30T21:43:43.944Z,88.93
2022-11-30T21:48:52.244Z,88.90
2022-11-30T21:54:01.422Z,88.88
2022-11-30T21:59:10.683Z,88.84
2022-11-30T22:04:18.184Z,88.66
2022-11-30T22:09:25.723Z,88.67
2022-11-30T22:14:33.270Z,89.07
2022-11-30T22:19:40.465Z,89.05
2022-11-30T22:24:45.955Z,89.26
2022-11-30T22:29:55.178Z,88.90
2022-11-30T22:35:02.374Z,88.93
2022-11-30T22:40:09.584Z,89.06
2022-11-30T22:45:17.308Z,89.19
2022-11-30T22:50:25.328Z,89.34
2022-11-30T22:55:34.261Z,89.36
2022-11-30T23:00:41.544Z,89.23
2022-11-30T23:05:49.353Z,89.43
2022-11-30T23:11:01.449Z,89.35
2022-11-30T23:16:20.008Z,89.27
2022-11-30T23:21:32.705Z,89.37
2022-11-30T23:26:42.864Z,89.24
2022-11-30T23:31:51.526Z,89.20
2022-11-30T23:36:58.741Z,89.26
2022-11-30T23:42:04.167Z,89.07
2022-11-30T23:47:16.799Z,89.29
2022-11-30T23:52:25.590Z,89.40
2022-11-30T23:57:31.719Z,89.13
